Crossville, AL

6:57 PM CST on December 21, 2014 (GMT -0600)
Double Bridges | Change Station
CLOSE
Current Station
Personal Weather Station
Location: Boaz, AL
Elevation: 1066 ft
Nearby Weather Stations

Elev 1066 ft 34.22 °N, 86.13 °W | Updated 23 seconds ago

Overcast
Overcast
47.8 °F
Feels Like 48 °F
N
0.0
Wind Variable Wind from WNW

Today
High -- | Low -- °F
--% Chance of Precip.
Yesterday
High -- | Low -- °F
Precip. -- in
6:46 AM 4:38 PM
Waning Crescent, 0% visible
Pressure 30.06 in
Visibility 7.0 miles
Clouds Overcast 1300 ft
Windchill 48 °F
Dew Point 46 °F
Humidity 93%
Rainfall 0.00 in
Snow Depth Not available.
UV 0 out of 12
Pollen 1.10 out of 12
Air Quality Not available.
Flu Activity Not available.
METAR K8A0 220035Z AUTO 10005KT 7SM OVC013 09/09 A3006 RMK AO2

More Conditions Fewer Conditions

Pressure 30.06 in
Visibility 7.0 miles
Clouds Overcast 1300 ft
Windchill 48 °F
Dew Point 46 °F
Humidity 93%
Rainfall 0.00 in
Snow Depth Not available.
UV 0 out of 12
Pollen 1.10 out of 12
Air Quality Not available.
Flu Activity Not available.
METAR K8A0 220035Z AUTO 10005KT 7SM OVC013 09/09 A3006 RMK AO2

More Conditions Fewer Conditions

10-Day Weather Forecast

Almanac

Astronomy

Dec. 21, 2014 Rise Set
Actual Time
Civil Twilight
Nautical Twilight
Astronomical Twilight
Moon
Length of Visible Light
Length of Day
Tomorrow will be .
, % of the Moon is Illuminated

Today's Extremes

State Highs State Lows

Community

WunderPhotos

Upload Photos

1,779,509 photos uploaded!

WunderBlogs® & News

Nearby

Air Quality

  Air Quality AQ Index Pollutant
Not available.

Snow Depth

Station Depth Elevation

Earthquake Activity

City Distance Mag. Time & Date
Minimum magnitude displayed is 2.5.

Coastal Water Temperatures

Place Temperature

Nearby Weather Stations